Terminal Aerodrome Forecast
Issued by NWS Sterling, VA

Current Version | Previous Version | Graphics & Text | Print | Product List | Glossary On
Versions: 1 2 3 4 5 6 7 8 9 10 11 12 13 14 15 16 17 18 19
893
FTUS41 KLWX 030524
TAFMRB
TAF
KMRB 030524Z 0306/0406 15008KT P6SM OVC070
     FM031000 16007KT 6SM -DZ BR OVC030 WS020/17035KT
     FM031400 17010KT 2SM -SHRA BR OVC008 WS020/19045KT
     FM031700 18012KT 2SM -SHRA BR OVC008
     FM032100 21008KT 2SM -SHRA BR OVC025
     FM040100 28005KT P6SM SCT150=

USA.gov is the U.S. government's official web portal to all federal, state and local government web resources and services.